Time;durP1;ratioP1;P1;durP2;ratioP2;P2;SDS_P1;SDS_P2;PMS_P1;PMS_P2;Temp;Humidity;BMP_temperature;BMP_pressure;BME280_temperature;BME280_humidity;BME280_pressure;Samples;Min_cycle;Max_cycle;Signal;HPM_P1;HPM_P2
2023/04/17 00:00:05;;;;;;;150.13;140.18;;;7.80;99.90;;;;;;5069071;28;20139;-71
2023/04/17 00:02:31;;;;;;;154.18;143.25;;;7.80;99.90;;;;;;5067246;28;20119;-71
2023/04/17 00:04:58;;;;;;;153.30;142.73;;;7.80;99.90;;;;;;5083009;28;20101;-70
2023/04/17 00:07:27;;;;;;;143.27;133.70;;;7.70;99.90;;;;;;5101337;28;20062;-71
2023/04/17 00:09:52;;;;;;;147.60;137.45;;;7.70;99.90;;;;;;5097113;27;20059;-71
2023/04/17 00:12:18;;;;;;;155.07;144.98;;;7.80;99.90;;;;;;5081810;28;20044;-70
2023/04/17 00:14:44;;;;;;;151.40;141.43;;;7.70;99.90;;;;;;5085317;28;20071;-71
2023/04/17 00:17:09;;;;;;;158.35;147.90;;;7.70;99.90;;;;;;5082679;28;20127;-71
2023/04/17 00:19:35;;;;;;;158.50;147.90;;;7.70;99.90;;;;;;5085285;28;20108;-70
2023/04/17 00:22:01;;;;;;;149.88;139.82;;;7.80;99.90;;;;;;5084569;28;20119;-71
2023/04/17 00:24:26;;;;;;;157.93;147.35;;;7.80;99.90;;;;;;5080688;28;20044;-70
2023/04/17 00:26:52;;;;;;;150.27;140.32;;;7.80;99.90;;;;;;5082651;28;20047;-70
2023/04/17 00:29:17;;;;;;;152.27;142.38;;;7.80;99.90;;;;;;5083379;28;20075;-71
2023/04/17 00:31:43;;;;;;;158.80;147.77;;;7.80;99.90;;;;;;5084103;28;20036;-70
2023/04/17 00:34:09;;;;;;;153.35;142.93;;;7.70;99.90;;;;;;5084109;28;20062;-70
2023/04/17 00:36:34;;;;;;;156.95;146.10;;;7.80;99.90;;;;;;5065520;28;20085;-71
2023/04/17 00:39:00;;;;;;;158.48;147.55;;;7.80;99.90;;;;;;5066816;28;20050;-70
2023/04/17 00:41:26;;;;;;;159.60;148.95;;;7.70;99.90;;;;;;5084481;28;20044;-71
2023/04/17 00:43:51;;;;;;;159.00;147.93;;;7.80;99.90;;;;;;5065460;28;20098;-71
2023/04/17 00:46:17;;;;;;;159.32;148.27;;;7.80;99.90;;;;;;5080225;28;20093;-71
2023/04/17 00:48:43;;;;;;;159.70;148.45;;;7.80;99.90;;;;;;5081225;28;20118;-71
2023/04/17 00:51:09;;;;;;;160.05;148.52;;;7.80;99.90;;;;;;5076773;28;20086;-70
2023/04/17 00:53:35;;;;;;;158.48;147.73;;;7.80;99.90;;;;;;5084247;28;20043;-71
2023/04/17 00:56:04;;;;;;;161.75;150.25;;;7.80;99.90;;;;;;5068117;28;20064;-70
2023/04/17 00:58:31;;;;;;;168.63;156.60;;;7.80;99.90;;;;;;5096762;28;20047;-71
2023/04/17 01:00:57;;;;;;;161.48;150.30;;;7.80;99.90;;;;;;5083915;28;20044;-71
2023/04/17 01:03:22;;;;;;;152.70;141.65;;;7.80;99.90;;;;;;5078895;28;20035;-71
2023/04/17 01:05:50;;;;;;;156.88;145.93;;;7.80;99.90;;;;;;5079338;28;20097;-70
2023/04/17 01:08:16;;;;;;;151.75;141.25;;;7.80;99.90;;;;;;5082555;28;20032;-70
2023/04/17 01:10:41;;;;;;;157.10;146.98;;;7.80;99.90;;;;;;5083089;28;20097;-70
2023/04/17 01:13:07;;;;;;;146.55;136.40;;;7.80;99.90;;;;;;5079047;28;20664;-70
2023/04/17 01:15:35;;;;;;;147.90;138.02;;;7.80;99.90;;;;;;5066868;28;20074;-71
2023/04/17 01:18:01;;;;;;;133.05;123.57;;;7.80;99.90;;;;;;5081883;28;20446;-71
2023/04/17 01:20:29;;;;;;;142.18;132.13;;;7.80;99.90;;;;;;5067020;28;20040;-71
2023/04/17 01:22:57;;;;;;;135.38;126.18;;;7.80;99.90;;;;;;5085306;28;20093;-72
2023/04/17 01:25:23;;;;;;;136.13;126.60;;;7.70;99.90;;;;;;5083233;28;20039;-73
2023/04/17 01:27:49;;;;;;;131.27;121.15;;;7.70;99.90;;;;;;5069317;28;20043;-73
2023/04/17 01:30:14;;;;;;;133.90;125.05;;;7.60;99.90;;;;;;5085644;28;20659;-72
2023/04/17 01:32:40;;;;;;;134.75;126.07;;;7.60;99.90;;;;;;5086077;28;20042;-71
2023/04/17 01:35:06;;;;;;;140.40;129.82;;;7.60;99.90;;;;;;5083635;28;20188;-71
2023/04/17 01:37:32;;;;;;;137.20;127.03;;;7.60;99.90;;;;;;5087885;27;20054;-71
2023/04/17 01:39:58;;;;;;;136.77;127.53;;;7.60;99.90;;;;;;5085512;28;20067;-71
2023/04/17 01:42:24;;;;;;;137.80;128.57;;;7.60;99.90;;;;;;5068770;28;20036;-71
2023/04/17 01:44:49;;;;;;;142.95;132.82;;;7.50;99.90;;;;;;5085427;28;20131;-71
2023/04/17 01:47:15;;;;;;;145.35;134.60;;;7.50;99.90;;;;;;5084719;28;20040;-71
2023/04/17 01:49:41;;;;;;;147.57;137.20;;;7.50;99.90;;;;;;5084504;27;20154;-71
2023/04/17 01:52:06;;;;;;;145.23;134.85;;;7.60;99.90;;;;;;5079803;28;20396;-73
2023/04/17 01:54:32;;;;;;;148.00;137.32;;;7.60;99.90;;;;;;5086317;28;20963;-73
2023/04/17 01:56:58;;;;;;;146.48;135.13;;;7.60;99.90;;;;;;5102229;28;20039;-72
2023/04/17 01:59:23;;;;;;;151.02;139.35;;;7.60;99.90;;;;;;5082858;28;20548;-71
2023/04/17 02:01:50;;;;;;;147.75;135.70;;;7.60;99.90;;;;;;5085329;28;20046;-71
2023/04/17 02:04:16;;;;;;;165.70;135.68;;;7.60;99.90;;;;;;5085280;28;20465;-71
2023/04/17 02:06:42;;;;;;;151.18;140.05;;;7.60;99.90;;;;;;5084089;28;20046;-70
2023/04/17 02:09:07;;;;;;;160.25;144.02;;;7.60;99.90;;;;;;5083912;28;20043;-71
2023/04/17 02:11:33;;;;;;;145.75;127.25;;;7.60;99.90;;;;;;5082091;28;20127;-70
2023/04/17 02:13:59;;;;;;;168.13;128.50;;;7.60;99.90;;;;;;5086728;28;20037;-70
2023/04/17 02:16:25;;;;;;;141.60;130.13;;;7.60;99.90;;;;;;5087078;28;20050;-71
2023/04/17 02:18:51;;;;;;;139.98;126.35;;;7.60;99.90;;;;;;5085309;28;20043;-71
2023/04/17 02:21:16;;;;;;;137.82;124.45;;;7.50;99.90;;;;;;5116714;27;20411;-71
2023/04/17 02:23:43;;;;;;;139.00;124.90;;;7.50;99.90;;;;;;5082639;28;20035;-71
2023/04/17 02:26:08;;;;;;;140.40;119.22;;;7.50;99.90;;;;;;5096441;28;20039;-71
2023/04/17 02:28:34;;;;;;;130.85;118.50;;;7.50;99.90;;;;;;5085127;28;20613;-70
2023/04/17 02:31:00;;;;;;;136.52;124.25;;;7.50;99.90;;;;;;5086472;28;20097;-70
2023/04/17 02:33:26;;;;;;;137.93;123.32;;;7.50;99.90;;;;;;5066546;28;20043;-72
2023/04/17 02:35:52;;;;;;;160.73;124.82;;;7.40;99.90;;;;;;5071038;28;20042;-71
2023/04/17 02:38:18;;;;;;;130.30;116.78;;;7.40;99.90;;;;;;5088696;28;20043;-71
2023/04/17 02:40:43;;;;;;;128.25;116.00;;;7.40;99.90;;;;;;5081119;28;20033;-71
2023/04/17 02:43:09;;;;;;;135.80;122.90;;;7.40;99.90;;;;;;5065671;28;20061;-71
2023/04/17 02:45:35;;;;;;;135.60;122.35;;;7.40;99.90;;;;;;5070430;28;20036;-71
2023/04/17 02:48:01;;;;;;;145.82;124.65;;;7.40;99.90;;;;;;5067762;28;20044;-71
2023/04/17 02:50:27;;;;;;;134.77;121.65;;;7.40;99.90;;;;;;5084472;28;20042;-71
2023/04/17 02:52:53;;;;;;;155.25;113.18;;;7.40;99.90;;;;;;5091290;27;20027;-71
2023/04/17 02:55:19;;;;;;;141.30;125.18;;;7.40;99.90;;;;;;5070668;28;20049;-71
2023/04/17 02:57:45;;;;;;;167.20;115.15;;;7.40;99.90;;;;;;5101660;27;20073;-70
2023/04/17 03:00:13;;;;;;;153.50;114.95;;;7.40;99.90;;;;;;5106532;27;20124;-70
2023/04/17 03:02:39;;;;;;;130.65;117.20;;;7.40;99.90;;;;;;5069862;28;20101;-71
2023/04/17 03:05:05;;;;;;;136.15;110.43;;;7.40;99.90;;;;;;5090646;28;20115;-70
2023/04/17 03:07:32;;;;;;;127.38;113.53;;;7.40;99.90;;;;;;5071291;28;20046;-71
2023/04/17 03:09:58;;;;;;;134.63;120.25;;;7.40;99.90;;;;;;5102279;27;20047;-71
2023/04/17 03:12:24;;;;;;;130.50;118.13;;;7.40;99.90;;;;;;5090705;27;20505;-71
2023/04/17 03:14:50;;;;;;;129.48;118.90;;;7.40;99.90;;;;;;5105627;27;20487;-71
2023/04/17 03:17:15;;;;;;;134.95;120.18;;;7.40;99.90;;;;;;5072697;28;20039;-70
2023/04/17 03:19:41;;;;;;;134.73;123.63;;;7.40;99.90;;;;;;5088775;28;20054;-71
2023/04/17 03:22:07;;;;;;;140.02;127.18;;;7.40;99.90;;;;;;5088306;27;20039;-71
2023/04/17 03:24:33;;;;;;;155.88;123.18;;;7.40;99.90;;;;;;5086046;27;20043;-71
2023/04/17 03:27:01;;;;;;;139.52;127.70;;;7.40;99.90;;;;;;5087030;28;20039;-70
2023/04/17 03:29:26;;;;;;;146.30;133.27;;;7.40;99.90;;;;;;5087280;28;20499;-72
2023/04/17 03:31:52;;;;;;;138.13;125.63;;;7.40;99.90;;;;;;5088304;28;20043;-72
2023/04/17 03:34:19;;;;;;;140.15;126.78;;;7.40;99.90;;;;;;5088511;28;20027;-73
2023/04/17 03:36:45;;;;;;;139.35;126.57;;;7.40;99.90;;;;;;5088384;28;20083;-72
2023/04/17 03:39:11;;;;;;;136.23;123.35;;;7.40;99.90;;;;;;5088837;27;20044;-71
2023/04/17 03:41:37;;;;;;;152.68;125.25;;;7.40;99.90;;;;;;5105526;27;20046;-70
2023/04/17 03:44:07;;;;;;;145.15;129.07;;;7.40;99.90;;;;;;5070959;28;20509;-71
2023/04/17 03:46:33;;;;;;;150.27;136.18;;;7.40;99.90;;;;;;5101358;27;20050;-71
2023/04/17 03:48:58;;;;;;;224.30;131.15;;;7.40;99.90;;;;;;5089319;27;20035;-71
2023/04/17 03:51:26;;;;;;;356.20;135.00;;;7.40;99.90;;;;;;5088471;28;20070;-71
2023/04/17 03:53:52;;;;;;;269.55;135.05;;;7.30;99.90;;;;;;5088591;28;20036;-71
2023/04/17 03:56:17;;;;;;;144.55;130.13;;;7.30;99.90;;;;;;5087164;28;20038;-70
2023/04/17 03:58:43;;;;;;;204.95;124.88;;;7.30;99.90;;;;;;5087438;28;20093;-71
2023/04/17 04:01:13;;;;;;;248.68;127.65;;;7.30;99.90;;;;;;5071880;28;20046;-73
2023/04/17 04:03:39;;;;;;;325.90;133.00;;;7.30;99.90;;;;;;5085925;27;20046;-72
2023/04/17 04:06:06;;;;;;;287.33;130.75;;;7.30;99.90;;;;;;5087053;28;20058;-72
2023/04/17 04:08:32;;;;;;;278.05;123.45;;;7.30;99.90;;;;;;5088856;28;20405;-72
2023/04/17 04:10:59;;;;;;;236.27;126.63;;;7.30;99.90;;;;;;5085824;27;20054;-72
2023/04/17 04:13:25;;;;;;;154.50;121.47;;;7.30;99.90;;;;;;5073647;28;20035;-70
2023/04/17 04:15:50;;;;;;;190.48;126.97;;;7.30;99.90;;;;;;5088434;27;20031;-71
2023/04/17 04:18:16;;;;;;;298.80;127.38;;;7.30;99.90;;;;;;5086426;27;20100;-71
2023/04/17 04:20:42;;;;;;;210.80;125.97;;;7.30;99.90;;;;;;5068110;28;20044;-70
2023/04/17 04:23:08;;;;;;;216.65;129.38;;;7.20;99.90;;;;;;5087483;27;20402;-70
2023/04/17 04:25:35;;;;;;;183.45;127.88;;;7.20;99.90;;;;;;5084405;28;20118;-72
2023/04/17 04:28:01;;;;;;;169.93;129.60;;;7.20;99.90;;;;;;5070577;27;20448;-72
2023/04/17 04:30:29;;;;;;;178.73;122.93;;;7.20;99.90;;;;;;5088122;28;20053;-72
2023/04/17 04:32:55;;;;;;;176.10;126.03;;;7.10;99.90;;;;;;5087566;28;20126;-72
2023/04/17 04:35:24;;;;;;;275.13;132.07;;;7.10;99.90;;;;;;5084910;28;20031;-72
2023/04/17 04:37:53;;;;;;;206.32;127.05;;;7.10;99.90;;;;;;5087772;28;20055;-72
2023/04/17 04:40:20;;;;;;;163.48;124.38;;;7.10;99.90;;;;;;5068936;28;20491;-73
2023/04/17 04:42:48;;;;;;;243.35;122.88;;;7.10;99.90;;;;;;5086496;27;20050;-72
2023/04/17 04:45:15;;;;;;;229.30;119.53;;;7.10;99.90;;;;;;5121274;27;20077;-73
2023/04/17 04:47:41;;;;;;;244.77;116.85;;;7.10;99.90;;;;;;5088463;28;20508;-73
2023/04/17 04:50:07;;;;;;;221.00;121.35;;;7.10;99.90;;;;;;5084228;27;20118;-73
2023/04/17 04:52:33;;;;;;;229.40;118.57;;;7.10;99.90;;;;;;5086939;28;20110;-72
2023/04/17 04:54:58;;;;;;;217.52;115.95;;;7.10;99.90;;;;;;5085031;28;20122;-72
2023/04/17 04:57:24;;;;;;;221.15;114.95;;;7.10;99.90;;;;;;5086277;28;20071;-73
2023/04/17 04:59:49;;;;;;;330.58;116.93;;;7.10;99.90;;;;;;5071896;28;20051;-72
2023/04/17 05:02:15;;;;;;;229.32;112.90;;;7.10;99.90;;;;;;5085565;28;20092;-72
2023/04/17 05:04:41;;;;;;;227.05;120.00;;;7.10;99.90;;;;;;5085741;27;20383;-72
2023/04/17 05:07:06;;;;;;;326.45;119.13;;;7.10;99.90;;;;;;5068413;28;20047;-72
2023/04/17 05:09:34;;;;;;;269.58;117.93;;;7.10;99.90;;;;;;5085637;28;20071;-73
2023/04/17 05:12:00;;;;;;;226.38;114.45;;;7.10;99.90;;;;;;5085984;27;20406;-72
2023/04/17 05:14:25;;;;;;;173.07;117.07;;;7.20;99.90;;;;;;5069328;28;20047;-72
2023/04/17 05:16:51;;;;;;;180.25;112.93;;;7.20;99.90;;;;;;5087594;28;20040;-72
2023/04/17 05:19:16;;;;;;;205.82;113.53;;;7.30;99.90;;;;;;5085894;28;20159;-73
2023/04/17 05:21:42;;;;;;;162.82;115.57;;;7.20;99.90;;;;;;5082719;28;20051;-73
2023/04/17 05:24:08;;;;;;;245.07;114.93;;;7.30;99.90;;;;;;5083560;28;20040;-73
2023/04/17 05:26:33;;;;;;;184.77;113.70;;;7.30;99.90;;;;;;5088332;28;20075;-72
2023/04/17 05:28:59;;;;;;;258.38;114.18;;;7.30;99.90;;;;;;5083693;28;20073;-73
2023/04/17 05:31:25;;;;;;;194.23;113.43;;;7.30;99.90;;;;;;5071037;28;20494;-73
2023/04/17 05:33:51;;;;;;;165.55;107.82;;;7.30;99.90;;;;;;5086828;28;20120;-72
2023/04/17 05:36:17;;;;;;;128.00;112.20;;;7.40;99.90;;;;;;5069656;28;20449;-73
2023/04/17 05:38:43;;;;;;;160.95;112.00;;;7.40;99.90;;;;;;5088024;28;20031;-73
2023/04/17 05:41:08;;;;;;;132.73;111.88;;;7.40;99.90;;;;;;5087729;28;20028;-73
2023/04/17 05:43:34;;;;;;;134.80;111.57;;;7.40;99.90;;;;;;5086052;28;20040;-73
2023/04/17 05:46:00;;;;;;;185.68;113.55;;;7.40;99.90;;;;;;5089087;28;20061;-73
2023/04/17 05:48:26;;;;;;;147.63;107.65;;;7.50;99.90;;;;;;5066932;28;20066;-73
2023/04/17 05:50:52;;;;;;;122.70;109.53;;;7.50;99.90;;;;;;5088165;28;20063;-73
2023/04/17 05:53:17;;;;;;;163.77;110.15;;;7.50;99.90;;;;;;5080435;28;20039;-73
2023/04/17 05:55:43;;;;;;;120.45;106.78;;;7.50;99.90;;;;;;5065966;28;20032;-72
2023/04/17 05:58:08;;;;;;;200.45;107.30;;;7.60;99.90;;;;;;5068208;28;20743;-72
2023/04/17 06:00:34;;;;;;;164.52;110.78;;;7.60;99.90;;;;;;5067695;28;20047;-73
2023/04/17 06:03:03;;;;;;;116.90;104.50;;;7.60;99.90;;;;;;5101711;28;20047;-73
2023/04/17 06:05:29;;;;;;;121.97;106.28;;;7.70;99.90;;;;;;5089971;28;20066;-72
2023/04/17 06:07:54;;;;;;;127.05;100.65;;;7.70;99.90;;;;;;5067940;28;20569;-73
2023/04/17 06:10:20;;;;;;;110.78;99.47;;;7.80;99.90;;;;;;5086764;28;20042;-72
2023/04/17 06:12:46;;;;;;;107.65;97.15;;;7.90;99.90;;;;;;5098364;28;20043;-73
2023/04/17 06:15:11;;;;;;;104.80;92.90;;;7.90;99.90;;;;;;5099338;28;20562;-73
2023/04/17 06:17:38;;;;;;;106.45;91.72;;;7.90;99.90;;;;;;5084019;28;20035;-72
2023/04/17 06:20:11;;;;;;;96.57;87.15;;;8.00;99.90;;;;;;5070546;28;20048;-73
2023/04/17 06:22:38;;;;;;;87.43;76.37;;;8.10;99.90;;;;;;5085362;28;20048;-72
2023/04/17 06:25:04;;;;;;;90.72;81.03;;;8.10;99.90;;;;;;5083645;28;20168;-72
2023/04/17 06:27:30;;;;;;;84.07;75.40;;;8.20;99.90;;;;;;5070698;28;20040;-72
2023/04/17 06:29:55;;;;;;;81.03;72.97;;;8.20;99.90;;;;;;5087904;28;20485;-73
2023/04/17 06:32:21;;;;;;;79.05;71.07;;;8.30;99.90;;;;;;5102284;27;20043;-70
2023/04/17 06:34:47;;;;;;;79.72;72.18;;;8.40;99.90;;;;;;5088833;28;20082;-70
2023/04/17 06:37:12;;;;;;;75.78;68.60;;;8.40;99.90;;;;;;5089182;28;20100;-70
2023/04/17 06:39:38;;;;;;;76.90;70.57;;;8.50;99.90;;;;;;5072573;28;20050;-70
2023/04/17 06:42:05;;;;;;;72.10;65.47;;;8.50;99.90;;;;;;5088982;27;20042;-72
2023/04/17 06:44:31;;;;;;;68.82;62.53;;;8.60;99.90;;;;;;5087968;28;20036;-70
2023/04/17 06:46:57;;;;;;;68.57;62.17;;;8.70;99.90;;;;;;5086103;27;20039;-70
2023/04/17 06:49:23;;;;;;;67.10;61.28;;;8.80;99.90;;;;;;5090529;27;20146;-70
2023/04/17 06:51:50;;;;;;;60.88;55.25;;;8.90;99.90;;;;;;5087841;27;20539;-70
2023/04/17 06:54:16;;;;;;;51.47;46.85;;;9.10;99.90;;;;;;5090507;28;20043;-71
2023/04/17 06:56:41;;;;;;;49.92;45.10;;;9.20;99.90;;;;;;5089226;28;20122;-71
2023/04/17 06:59:07;;;;;;;50.40;45.45;;;9.20;99.90;;;;;;5089352;28;20135;-70
2023/04/17 07:01:33;;;;;;;48.80;43.65;;;9.30;99.90;;;;;;5087385;28;20043;-71
2023/04/17 07:04:00;;;;;;;47.00;42.20;;;9.30;99.90;;;;;;5069793;28;20051;-71
2023/04/17 07:06:26;;;;;;;48.50;43.63;;;9.30;99.90;;;;;;5102763;27;20051;-70
2023/04/17 07:08:52;;;;;;;46.22;41.53;;;9.40;99.90;;;;;;5078491;28;20043;-71
2023/04/17 07:11:18;;;;;;;47.70;42.95;;;9.50;99.90;;;;;;5082185;28;20080;-70
2023/04/17 07:13:43;;;;;;;47.47;42.70;;;9.50;99.90;;;;;;5063509;28;20989;-71
2023/04/17 07:16:09;;;;;;;47.13;42.60;;;9.60;99.90;;;;;;5067121;27;20040;-71
2023/04/17 07:18:34;;;;;;;46.63;41.88;;;9.60;99.90;;;;;;5083550;28;20119;-71
2023/04/17 07:21:01;;;;;;;44.90;40.42;;;9.70;99.90;;;;;;5059734;28;20043;-71
2023/04/17 07:23:26;;;;;;;44.38;39.92;;;9.70;99.90;;;;;;5081414;27;20372;-71
2023/04/17 07:25:52;;;;;;;43.83;39.58;;;9.80;99.90;;;;;;5085517;27;20358;-71
2023/04/17 07:28:18;;;;;;;44.28;40.10;;;9.90;99.90;;;;;;5079163;28;20052;-71
2023/04/17 07:30:44;;;;;;;45.05;40.95;;;10.00;99.90;;;;;;5082554;28;20443;-71
2023/04/17 07:33:10;;;;;;;42.58;38.55;;;10.00;99.90;;;;;;5078483;28;20044;-70
2023/04/17 07:35:36;;;;;;;41.80;37.90;;;10.10;99.90;;;;;;5079689;28;20035;-70
2023/04/17 07:38:03;;;;;;;46.40;41.78;;;10.10;99.90;;;;;;5077553;28;20071;-71
2023/04/17 07:40:29;;;;;;;44.00;39.50;;;10.10;99.90;;;;;;5078319;28;20048;-71
2023/04/17 07:42:55;;;;;;;45.53;41.10;;;10.10;99.90;;;;;;5084280;28;20519;-71
2023/04/17 07:45:22;;;;;;;44.42;40.03;;;10.20;99.90;;;;;;5086935;28;20043;-70
2023/04/17 07:47:49;;;;;;;45.13;40.67;;;10.20;99.90;;;;;;5088101;28;20043;-71
2023/04/17 07:50:15;;;;;;;46.45;41.88;;;10.30;99.90;;;;;;5087606;28;20032;-71
2023/04/17 07:52:40;;;;;;;45.13;40.75;;;10.40;99.90;;;;;;5087820;28;20040;-71
2023/04/17 07:55:06;;;;;;;45.38;40.88;;;10.50;99.90;;;;;;5085435;28;20656;-70
2023/04/17 07:57:32;;;;;;;45.63;41.08;;;10.60;99.90;;;;;;5068970;28;20064;-71
2023/04/17 07:59:57;;;;;;;53.78;49.13;;;10.80;99.90;;;;;;5072739;28;20123;-71
2023/04/17 08:02:23;;;;;;;55.13;50.53;;;11.00;99.90;;;;;;5084790;28;20153;-71
2023/04/17 08:04:51;;;;;;;62.47;57.47;;;11.10;99.90;;;;;;5081238;28;20117;-70
2023/04/17 08:07:19;;;;;;;53.42;49.00;;;11.20;99.90;;;;;;5067619;28;20072;-71
2023/04/17 08:09:45;;;;;;;66.90;61.70;;;11.30;99.90;;;;;;5081585;28;20095;-71
2023/04/17 08:12:10;;;;;;;59.33;54.78;;;11.40;99.90;;;;;;5060617;28;20036;-71
2023/04/17 08:14:37;;;;;;;94.63;88.38;;;11.50;99.90;;;;;;5085496;28;20046;-71
2023/04/17 08:17:03;;;;;;;73.45;67.95;;;11.50;99.90;;;;;;5084909;28;20055;-70
2023/04/17 08:19:28;;;;;;;82.30;76.63;;;11.50;99.90;;;;;;5067047;28;20031;-71
2023/04/17 08:22:03;;;;;;;96.18;90.20;;;11.50;99.90;;;;;;5080954;28;20399;-70
2023/04/17 08:24:30;;;;;;;97.13;91.40;;;11.60;99.90;;;;;;5072863;28;20074;-70
2023/04/17 08:26:56;;;;;;;106.70;100.45;;;11.60;99.90;;;;;;5077470;28;20052;-71
2023/04/17 08:29:22;;;;;;;88.65;83.00;;;11.60;99.90;;;;;;5078177;28;20097;-70
2023/04/17 08:31:47;;;;;;;84.57;79.18;;;11.70;99.90;;;;;;5056144;28;20450;-70
2023/04/17 08:34:13;;;;;;;89.95;84.32;;;12.10;99.90;;;;;;5095459;27;20484;-71
2023/04/17 08:36:39;;;;;;;98.78;92.95;;;12.30;99.90;;;;;;5085109;28;20043;-72
2023/04/17 08:39:05;;;;;;;107.07;101.00;;;12.70;99.90;;;;;;5084664;28;20154;-70
2023/04/17 08:41:37;;;;;;;79.93;74.90;;;13.00;99.90;;;;;;5081303;28;20043;-71
2023/04/17 08:44:04;;;;;;;69.35;64.47;;;13.20;99.90;;;;;;5082650;28;20390;-70
2023/04/17 08:46:30;;;;;;;65.65;60.92;;;13.30;99.90;;;;;;5085997;28;20058;-71
2023/04/17 08:48:56;;;;;;;62.13;57.72;;;13.30;99.90;;;;;;5063237;28;20089;-71
2023/04/17 08:51:26;;;;;;;62.10;57.70;;;13.40;99.90;;;;;;5060591;28;20036;-70
2023/04/17 08:53:52;;;;;;;78.47;73.38;;;13.40;99.90;;;;;;5083116;28;20048;-70
2023/04/17 08:56:18;;;;;;;75.00;70.40;;;13.50;99.90;;;;;;5066455;28;20047;-71
2023/04/17 08:58:44;;;;;;;60.40;56.30;;;13.90;99.90;;;;;;5082528;28;20032;-71
2023/04/17 09:01:18;;;;;;;94.63;89.25;;;14.10;99.90;;;;;;5084544;28;20092;-71
2023/04/17 09:03:46;;;;;;;78.15;73.47;;;14.20;99.90;;;;;;5078537;28;20503;-70
2023/04/17 09:06:12;;;;;;;56.55;52.67;;;14.40;99.90;;;;;;5076488;28;20391;-71
2023/04/17 09:08:52;;;;;;;51.92;47.88;;;14.80;99.90;;;;;;5081082;28;20118;-71
2023/04/17 09:11:18;;;;;;;36.22;33.13;;;15.20;99.90;;;;;;5101647;27;20039;-71
2023/04/17 09:13:44;;;;;;;48.42;44.80;;;15.40;99.90;;;;;;5070450;28;20063;-71
2023/04/17 09:16:12;;;;;;;48.97;44.97;;;15.40;99.90;;;;;;5065216;28;20044;-70
2023/04/17 09:18:39;;;;;;;50.28;46.70;;;15.80;99.90;;;;;;5083546;28;20407;-71
2023/04/17 09:21:06;;;;;;;45.20;41.58;;;16.20;99.90;;;;;;5067021;28;20501;-71
2023/04/17 09:23:47;;;;;;;38.58;35.47;;;16.70;99.90;;;;;;5072350;28;20064;-71
2023/04/17 09:26:15;;;;;;;42.05;38.75;;;16.80;99.90;;;;;;5080907;28;20113;-71
2023/04/17 09:28:58;;;;;;;42.20;39.03;;;17.00;99.90;;;;;;5073156;28;20051;-70
2023/04/17 09:31:25;;;;;;;66.07;61.85;;;17.20;99.90;;;;;;5084070;28;20089;-70
2023/04/17 09:33:58;;;;;;;39.65;36.53;;;17.60;99.90;;;;;;5078012;28;20047;-71
2023/04/17 09:36:26;;;;;;;62.28;58.45;;;17.90;99.90;;;;;;5084915;28;20514;-70
2023/04/17 09:38:52;;;;;;;41.33;38.33;;;18.00;99.90;;;;;;5066929;28;20036;-71
2023/04/17 09:41:29;;;;;;;44.15;40.83;;;17.80;99.90;;;;;;5083903;28;20051;-70
2023/04/17 09:43:59;;;;;;;66.80;62.70;;;17.50;99.90;;;;;;5065577;28;20042;-70
2023/04/17 09:46:41;;;;;;;52.78;49.10;;;17.40;99.90;;;;;;5085044;28;20036;-71
2023/04/17 09:49:34;;;;;;;43.22;39.83;;;17.10;99.90;;;;;;5100340;28;20402;-70
2023/04/17 09:51:59;;;;;;;50.25;46.80;;;16.90;99.90;;;;;;5066172;28;20036;-70
2023/04/17 09:54:30;;;;;;;73.63;69.35;;;16.70;99.90;;;;;;5074407;28;20406;-71
2023/04/17 09:56:56;;;;;;;45.63;41.97;;;16.40;99.90;;;;;;5085698;28;20058;-71
2023/04/17 09:59:23;;;;;;;44.13;40.97;;;16.00;99.90;;;;;;5098382;28;20108;-70
2023/04/17 10:01:52;;;;;;;53.85;50.33;;;15.90;99.90;;;;;;5081421;28;20036;-71
2023/04/17 10:04:18;;;;;;;39.85;36.60;;;15.80;99.90;;;;;;5080890;28;20055;-70
2023/04/17 10:06:44;;;;;;;39.33;36.33;;;15.70;99.90;;;;;;5078359;28;20044;-71
2023/04/17 10:09:10;;;;;;;52.17;48.65;;;15.50;99.90;;;;;;5057245;28;20398;-71
2023/04/17 10:11:39;;;;;;;38.35;35.50;;;15.50;99.90;;;;;;5085365;28;20122;-70
2023/04/17 10:14:25;;;;;;;38.42;35.33;;;15.60;99.90;;;;;;5079711;28;20044;-71
2023/04/17 10:16:52;;;;;;;67.85;63.80;;;15.80;99.90;;;;;;5076098;28;20044;-71
2023/04/17 10:19:35;;;;;;;39.08;36.08;;;15.90;99.90;;;;;;5075759;28;20065;-71
2023/04/17 10:22:19;;;;;;;60.03;56.33;;;16.20;99.90;;;;;;5079841;28;20596;-71
2023/04/17 10:24:51;;;;;;;39.70;36.67;;;16.10;99.90;;;;;;5073372;28;20040;-71
2023/04/17 10:27:26;;;;;;;44.28;40.97;;;16.20;99.90;;;;;;5077690;28;20044;-70
2023/04/17 10:30:00;;;;;;;43.65;40.38;;;16.10;99.90;;;;;;5063288;28;20477;-71
2023/04/17 10:32:27;;;;;;;38.20;35.30;;;16.00;99.90;;;;;;5082831;28;20785;-70
2023/04/17 10:34:58;;;;;;;63.08;59.22;;;15.80;99.90;;;;;;5080425;28;20036;-71
2023/04/17 10:38:03;;;;;;;47.70;44.45;;;15.60;99.90;;;;;;5096489;28;20040;-70
2023/04/17 10:40:30;;;;;;;40.03;37.00;;;15.90;99.90;;;;;;5070291;28;20047;-71
2023/04/17 10:43:13;;;;;;;47.40;44.10;;;16.20;99.90;;;;;;5063630;28;20044;-71
2023/04/17 10:46:00;;;;;;;38.00;35.10;;;16.40;99.90;;;;;;5080964;28;20081;-71
2023/04/17 10:48:27;;;;;;;40.50;37.40;;;16.50;99.90;;;;;;5078884;28;20044;-70
2023/04/17 10:50:56;;;;;;;61.55;57.72;;;16.50;99.90;;;;;;5063619;28;20127;-70
2023/04/17 10:53:39;;;;;;;40.15;37.30;;;16.60;99.90;;;;;;5077514;28;20438;-70
2023/04/17 10:56:05;;;;;;;36.65;33.63;;;16.60;99.90;;;;;;5082705;28;20046;-70
2023/04/17 10:58:31;;;;;;;40.88;37.72;;;16.80;99.90;;;;;;5081286;28;20785;-71
2023/04/17 11:01:02;;;;;;;44.13;41.13;;;16.90;99.90;;;;;;5072700;28;20484;-70
2023/04/17 11:03:29;;;;;;;41.20;38.25;;;16.90;99.90;;;;;;5075235;28;20055;-70
2023/04/17 11:05:57;;;;;;;47.33;44.03;;;17.00;99.90;;;;;;5091714;28;20598;-70
2023/04/17 11:08:23;;;;;;;57.33;53.58;;;17.10;99.90;;;;;;5060719;28;20138;-71
2023/04/17 11:10:54;;;;;;;43.75;40.58;;;17.40;99.90;;;;;;5068514;28;20052;-71
2023/04/17 11:13:20;;;;;;;50.33;47.03;;;17.40;99.90;;;;;;5081513;28;20036;-71
2023/04/17 11:15:46;;;;;;;44.22;41.17;;;17.30;99.90;;;;;;5068230;28;20053;-71
2023/04/17 11:18:12;;;;;;;45.00;41.70;;;17.00;99.90;;;;;;5069101;28;20044;-71
2023/04/17 11:20:38;;;;;;;48.58;45.25;;;17.00;99.90;;;;;;5082438;28;20039;-71
2023/04/17 11:23:05;;;;;;;69.40;65.53;;;17.20;99.90;;;;;;5085303;28;20428;-70
2023/04/17 11:25:32;;;;;;;50.15;46.72;;;17.50;99.90;;;;;;5086283;28;20048;-71
2023/04/17 11:28:00;;;;;;;45.15;42.00;;;17.40;99.90;;;;;;5100254;27;20082;-71
2023/04/17 11:30:33;;;;;;;41.88;38.70;;;17.20;99.90;;;;;;5087947;28;20040;-70
2023/04/17 11:33:01;;;;;;;50.03;46.63;;;17.00;99.90;;;;;;5091397;27;20043;-71
2023/04/17 11:35:31;;;;;;;40.65;37.55;;;16.80;99.90;;;;;;5117293;27;20046;-71
2023/04/17 11:38:22;;;;;;;45.25;41.85;;;16.70;99.90;;;;;;5090741;28;20039;-71
2023/04/17 11:40:48;;;;;;;39.20;36.00;;;16.70;99.90;;;;;;5088485;28;20058;-70
2023/04/17 11:43:14;;;;;;;46.38;42.97;;;16.90;99.90;;;;;;5072487;28;20035;-70
2023/04/17 11:45:42;;;;;;;78.53;74.03;;;17.10;99.90;;;;;;5087356;27;20135;-70
2023/04/17 11:48:10;;;;;;;37.42;34.42;;;17.00;99.90;;;;;;5092023;28;20447;-70
2023/04/17 11:50:36;;;;;;;38.85;35.95;;;17.00;99.90;;;;;;5090408;27;20553;-70
2023/04/17 11:53:03;;;;;;;47.13;43.65;;;17.10;99.90;;;;;;5082098;28;20039;-70
2023/04/17 11:55:30;;;;;;;43.38;40.13;;;17.30;99.90;;;;;;5086495;28;20043;-70
2023/04/17 11:58:05;;;;;;;58.60;54.95;;;17.60;99.90;;;;;;5089845;28;20036;-71
2023/04/17 12:00:31;;;;;;;38.92;35.83;;;17.60;99.90;;;;;;5103497;27;20472;-71
2023/04/17 12:02:59;;;;;;;39.28;36.33;;;17.30;99.90;;;;;;5090001;28;20047;-70
2023/04/17 12:05:26;;;;;;;61.08;57.28;;;17.20;99.90;;;;;;5088640;28;20489;-70
2023/04/17 12:08:18;;;;;;;41.83;38.85;;;17.10;99.90;;;;;;5086942;28;20051;-70
2023/04/17 12:10:44;;;;;;;36.20;33.30;;;17.30;99.90;;;;;;5084090;28;20100;-70
2023/04/17 12:13:10;;;;;;;33.58;30.88;;;17.60;99.90;;;;;;5087558;27;20039;-70
2023/04/17 12:15:39;;;;;;;36.33;33.22;;;17.50;99.90;;;;;;5084428;28;20137;-70
2023/04/17 12:18:05;;;;;;;40.17;37.28;;;17.40;99.90;;;;;;5100765;27;20120;-70
2023/04/17 12:20:37;;;;;;;29.55;26.90;;;17.50;99.90;;;;;;5088854;28;20039;-70
2023/04/17 12:23:04;;;;;;;25.70;23.30;;;17.70;99.90;;;;;;5071779;27;20119;-71